Time;durP1;ratioP1;P1;durP2;ratioP2;P2;SDS_P1;SDS_P2;PMS_P1;PMS_P2;Temp;Humidity;BMP_temperature;BMP_pressure;BME280_temperature;BME280_humidity;BME280_pressure;Samples;Min_cycle;Max_cycle;Signal;HPM_P1;HPM_P2
2023/11/12 00:02:11;;;;;;;;;;;5.00;74.90;;;;;;5092413;28;20323;-68
2023/11/12 00:04:37;;;;;;;;;;;5.00;74.90;;;;;;5092841;28;19916;-69
2023/11/12 00:07:03;;;;;;;;;;;5.00;75.10;;;;;;5092863;28;19920;-69
2023/11/12 00:09:29;;;;;;;;;;;5.00;75.10;;;;;;5093781;28;19912;-68
2023/11/12 00:11:55;;;;;;;;;;;4.90;74.70;;;;;;5075204;28;19926;-69
2023/11/12 00:14:21;;;;;;;;;;;4.90;75.60;;;;;;5092848;28;19912;-68
2023/11/12 00:16:47;;;;;;;;;;;4.90;75.40;;;;;;5092752;28;19926;-70
2023/11/12 00:19:16;;;;;;;;;;;4.90;75.30;;;;;;5092630;28;19968;-70
2023/11/12 00:21:46;;;;;;;;;;;4.90;75.30;;;;;;5091826;28;19962;-70
2023/11/12 00:24:12;;;;;;;;;;;4.90;75.30;;;;;;5092480;28;20381;-70
2023/11/12 00:26:38;;;;;;;;;;;4.80;75.20;;;;;;5092399;28;19920;-70
2023/11/12 00:29:04;;;;;;;;;;;4.90;75.50;;;;;;5092496;28;19918;-69
2023/11/12 00:31:30;;;;;;;;;;;4.90;74.90;;;;;;5091840;28;19920;-68
2023/11/12 00:33:58;;;;;;;;;;;4.80;75.40;;;;;;5093406;28;20018;-70
2023/11/12 00:36:24;;;;;;;;;;;4.80;75.50;;;;;;5093654;28;19924;-68
2023/11/12 00:38:50;;;;;;;;;;;4.80;75.70;;;;;;5092212;28;19916;-68
2023/11/12 00:41:27;;;;;;;;;;;4.80;75.70;;;;;;5092922;28;19920;-68
2023/11/12 00:43:56;;;;;;;;;;;4.80;75.40;;;;;;5092016;28;19916;-68
2023/11/12 00:46:22;;;;;;;;;;;4.70;75.50;;;;;;5092086;28;19923;-70
2023/11/12 00:48:48;;;;;;;;;;;4.70;75.50;;;;;;5093501;28;19923;-68
2023/11/12 00:51:14;;;;;;;;;;;4.70;75.60;;;;;;5091484;28;19927;-68
2023/11/12 00:53:40;;;;;;;;;;;4.60;75.50;;;;;;5091857;28;19922;-68
2023/11/12 00:56:07;;;;;;;;;;;4.60;75.40;;;;;;5093303;28;19949;-68
2023/11/12 00:58:33;;;;;;;;;;;4.60;74.90;;;;;;5093237;28;20014;-69
2023/11/12 01:01:00;;;;;;;;;;;4.60;75.60;;;;;;5091408;28;19920;-68
2023/11/12 01:03:32;;;;;;;;;;;4.50;75.90;;;;;;5092962;28;19919;-70
2023/11/12 01:05:59;;;;;;;;;;;4.50;75.90;;;;;;5091866;28;19951;-69
2023/11/12 01:08:25;;;;;;;;;;;4.50;75.60;;;;;;5092924;28;20387;-68
2023/11/12 01:10:54;;;;;;;;;;;4.50;75.70;;;;;;5091082;28;19920;-68
2023/11/12 01:13:20;;;;;;;;;;;4.50;75.70;;;;;;5091720;28;19912;-69
2023/11/12 01:15:46;;;;;;;;;;;4.50;74.80;;;;;;5093044;28;19920;-68
2023/11/12 01:18:12;;;;;;;;;;;4.50;75.40;;;;;;5092850;28;19919;-68
2023/11/12 01:20:38;;;;;;;;;;;4.60;75.20;;;;;;5073971;28;19927;-68
2023/11/12 01:23:04;;;;;;;;;;;4.60;75.30;;;;;;5093331;28;19916;-68
2023/11/12 01:25:30;;;;;;;;;;;4.60;75.10;;;;;;5091502;28;19916;-70
2023/11/12 01:27:56;;;;;;;;;;;4.60;75.20;;;;;;5091548;28;19916;-69
2023/11/12 01:30:22;;;;;;;;;;;4.60;75.30;;;;;;5092176;28;19923;-68
2023/11/12 01:32:52;;;;;;;;;;;4.60;75.40;;;;;;5091745;28;20015;-68
2023/11/12 01:35:19;;;;;;;;;;;4.60;75.40;;;;;;5075024;28;20130;-69
2023/11/12 01:37:45;;;;;;;;;;;4.60;75.20;;;;;;5093233;28;19920;-69
2023/11/12 01:40:14;;;;;;;;;;;4.60;75.30;;;;;;5090745;28;19961;-68
2023/11/12 01:42:40;;;;;;;;;;;4.60;75.40;;;;;;5091729;28;19916;-69
2023/11/12 01:45:08;;;;;;;;;;;4.60;75.40;;;;;;5091595;28;20282;-69
2023/11/12 01:47:34;;;;;;;;;;;4.60;75.50;;;;;;5091342;28;19916;-70
2023/11/12 01:49:59;;;;;;;;;;;4.60;75.40;;;;;;5091390;28;19977;-68
2023/11/12 01:52:25;;;;;;;;;;;4.60;75.40;;;;;;5090935;28;19927;-68
2023/11/12 01:54:52;;;;;;;;;;;4.60;75.40;;;;;;5093192;28;19919;-69
2023/11/12 01:57:18;;;;;;;;;;;4.50;75.40;;;;;;5095450;28;19965;-68
2023/11/12 01:59:44;;;;;;;;;;;4.50;75.60;;;;;;5078363;28;19920;-68
2023/11/12 02:02:10;;;;;;;;;;;4.50;75.60;;;;;;5077681;28;19954;-69
2023/11/12 02:04:36;;;;;;;;;;;4.60;75.60;;;;;;5078109;28;20292;-68
2023/11/12 02:07:02;;;;;;;;;;;4.50;75.30;;;;;;5078334;28;19920;-70
2023/11/12 02:09:29;;;;;;;;;;;4.50;75.40;;;;;;5077964;28;19912;-69
2023/11/12 02:11:55;;;;;;;;;;;4.50;75.10;;;;;;5095909;28;19924;-70
2023/11/12 02:14:24;;;;;;;;;;;4.50;75.30;;;;;;5096369;28;19995;-68
2023/11/12 02:16:51;;;;;;;;;;;4.50;75.30;;;;;;5095175;28;19930;-70
2023/11/12 02:19:36;;;;;;;;;;;4.40;75.10;;;;;;5094960;28;20323;-69
2023/11/12 02:22:02;;;;;;;;;;;4.50;75.10;;;;;;5094320;28;19920;-70
2023/11/12 02:24:29;;;;;;;;;;;4.50;75.00;;;;;;5096123;28;20360;-68
2023/11/12 02:26:55;;;;;;;;;;;4.60;75.10;;;;;;5094526;28;19967;-68
2023/11/12 02:29:22;;;;;;;;;;;4.60;75.80;;;;;;5096166;28;19995;-70
2023/11/12 02:31:48;;;;;;;;;;;4.60;74.80;;;;;;5094191;28;19951;-69
2023/11/12 02:34:13;;;;;;;;;;;4.60;74.80;;;;;;5077978;28;20230;-68
2023/11/12 02:36:40;;;;;;;;;;;4.70;74.70;;;;;;5094599;28;19924;-68
2023/11/12 02:39:08;;;;;;;;;;;4.60;74.80;;;;;;5095732;28;19942;-70
2023/11/12 02:41:55;;;;;;;;;;;4.70;75.00;;;;;;5093903;28;19988;-70
2023/11/12 02:44:22;;;;;;;;;;;4.70;74.70;;;;;;5094499;28;20379;-69
2023/11/12 02:46:48;;;;;;;;;;;4.70;74.70;;;;;;5095856;28;19932;-68
2023/11/12 02:49:51;;;;;;;;;;;4.70;74.80;;;;;;5094758;28;19919;-70
2023/11/12 02:52:18;;;;;;;;;;;4.70;74.70;;;;;;5093703;28;20432;-69
2023/11/12 02:54:44;;;;;;;;;;;4.70;75.00;;;;;;5095638;28;19955;-68
2023/11/12 02:57:10;;;;;;;;;;;4.60;75.30;;;;;;5095616;28;19928;-69
2023/11/12 02:59:36;;;;;;;;;;;4.60;75.40;;;;;;5095361;28;19916;-69
2023/11/12 03:02:02;;;;;;;;;;;4.60;75.60;;;;;;5093472;28;19959;-69
2023/11/12 03:04:28;;;;;;;;;;;4.60;75.60;;;;;;5095194;28;19912;-68
2023/11/12 03:06:53;;;;;;;;;;;4.60;75.70;;;;;;5094291;28;20254;-69
2023/11/12 03:09:19;;;;;;;;;;;4.60;75.50;;;;;;5095192;28;20320;-69
2023/11/12 03:11:46;;;;;;;;;;;4.60;75.50;;;;;;5094737;28;19920;-70
2023/11/12 03:14:12;;;;;;;;;;;4.70;75.70;;;;;;5077300;28;19961;-69
2023/11/12 03:16:38;;;;;;;;;;;4.70;75.90;;;;;;5093831;28;19920;-69
2023/11/12 03:19:04;;;;;;;;;;;4.60;75.50;;;;;;5094965;28;20257;-68
2023/11/12 03:21:30;;;;;;;;;;;4.60;75.70;;;;;;5092751;28;19920;-70
2023/11/12 03:23:56;;;;;;;;;;;4.60;75.80;;;;;;5094979;28;19912;-68
2023/11/12 03:26:22;;;;;;;;;;;4.60;75.80;;;;;;5094795;28;19976;-70
2023/11/12 03:28:47;;;;;;;;;;;4.70;75.90;;;;;;5093633;28;20011;-69
2023/11/12 03:31:13;;;;;;;;;;;4.70;76.30;;;;;;5092998;28;20392;-68
2023/11/12 03:33:39;;;;;;;;;;;4.60;76.20;;;;;;5093485;28;20422;-68
2023/11/12 03:36:06;;;;;;;;;;;4.70;76.20;;;;;;5094825;28;19927;-68
2023/11/12 03:38:31;;;;;;;;;;;4.70;76.10;;;;;;5093224;28;19912;-68
2023/11/12 03:40:57;;;;;;;;;;;4.70;76.30;;;;;;5092754;28;19920;-68
2023/11/12 03:43:23;;;;;;;;;;;4.70;76.40;;;;;;5094517;28;19922;-69
2023/11/12 03:45:49;;;;;;;;;;;4.70;76.40;;;;;;5093197;28;20284;-69
2023/11/12 03:48:15;;;;;;;;;;;4.70;76.40;;;;;;5093049;28;20390;-68
2023/11/12 03:50:42;;;;;;;;;;;4.70;76.40;;;;;;5093817;28;20345;-68
2023/11/12 03:53:07;;;;;;;;;;;4.70;76.30;;;;;;5093926;28;19923;-68
2023/11/12 03:55:33;;;;;;;;;;;4.60;76.30;;;;;;5092924;28;19916;-69
2023/11/12 03:57:59;;;;;;;;;;;4.60;76.40;;;;;;5094429;28;19915;-69
2023/11/12 04:00:25;;;;;;;;;;;4.60;75.90;;;;;;5093742;28;20279;-69
2023/11/12 04:02:51;;;;;;;;;;;4.60;76.50;;;;;;5094316;28;19919;-68
2023/11/12 04:05:17;;;;;;;;;;;4.60;76.70;;;;;;5092754;28;20364;-68
2023/11/12 04:07:44;;;;;;;;;;;4.60;76.70;;;;;;5094456;28;19924;-69
2023/11/12 04:10:28;;;;;;;;;;;4.60;76.90;;;;;;5092049;28;19922;-68
2023/11/12 04:12:55;;;;;;;;;;;4.60;76.80;;;;;;5094059;28;20294;-69
2023/11/12 04:15:21;;;;;;;;;;;4.50;77.00;;;;;;5093764;28;19919;-69
2023/11/12 04:17:47;;;;;;;;;;;4.50;77.10;;;;;;5092554;28;19915;-68
2023/11/12 04:20:14;;;;;;;;;;;4.50;77.10;;;;;;5093239;28;20011;-69
2023/11/12 04:22:41;;;;;;;;;;;4.50;77.10;;;;;;5092624;28;20368;-68
2023/11/12 04:25:07;;;;;;;;;;;4.40;76.80;;;;;;5093767;28;19916;-68
2023/11/12 04:27:33;;;;;;;;;;;4.50;76.70;;;;;;5094074;28;19926;-68
2023/11/12 04:30:00;;;;;;;;;;;4.40;76.70;;;;;;5093844;28;19916;-70
2023/11/12 04:32:26;;;;;;;;;;;4.50;77.10;;;;;;5091852;28;20288;-69
2023/11/12 04:34:51;;;;;;;;;;;4.40;77.00;;;;;;5093660;28;19912;-69
2023/11/12 04:37:17;;;;;;;;;;;4.40;77.00;;;;;;5093799;28;20014;-68
2023/11/12 04:39:43;;;;;;;;;;;4.40;76.80;;;;;;5093395;28;19916;-68
2023/11/12 04:42:09;;;;;;;;;;;4.30;77.00;;;;;;5091645;28;19916;-70
2023/11/12 04:44:35;;;;;;;;;;;4.20;77.20;;;;;;5092101;28;19926;-69
2023/11/12 04:47:01;;;;;;;;;;;4.20;76.80;;;;;;5093738;28;19916;-68
2023/11/12 04:49:27;;;;;;;;;;;4.00;76.60;;;;;;5092106;28;19965;-68
2023/11/12 04:51:53;;;;;;;;;;;4.00;77.10;;;;;;5091597;28;19924;-69
2023/11/12 04:54:19;;;;;;;;;;;4.00;77.00;;;;;;5093295;28;19916;-69
2023/11/12 04:56:46;;;;;;;;;;;3.90;76.30;;;;;;5093467;28;19920;-69
2023/11/12 04:59:13;;;;;;;;;;;3.90;76.80;;;;;;5092002;28;20007;-69
2023/11/12 05:01:39;;;;;;;;;;;3.90;76.70;;;;;;5091540;28;19927;-70
2023/11/12 05:04:05;;;;;;;;;;;3.90;76.80;;;;;;5091891;28;20372;-68
2023/11/12 05:06:31;;;;;;;;;;;3.90;76.40;;;;;;5093208;28;19926;-68
2023/11/12 05:08:58;;;;;;;;;;;3.90;76.40;;;;;;5091566;28;19927;-70
2023/11/12 05:11:25;;;;;;;;;;;3.90;76.40;;;;;;5092675;28;19920;-68
2023/11/12 05:13:51;;;;;;;;;;;3.80;76.70;;;;;;5075010;28;19926;-69
2023/11/12 05:16:17;;;;;;;;;;;3.80;76.50;;;;;;5091784;28;19939;-69
2023/11/12 05:18:43;;;;;;;;;;;3.90;77.20;;;;;;5092939;28;19919;-69
2023/11/12 05:21:09;;;;;;;;;;;3.90;77.00;;;;;;5092386;28;19919;-70
2023/11/12 05:23:36;;;;;;;;;;;3.90;77.90;;;;;;5092824;28;19956;-70
2023/11/12 05:26:02;;;;;;;;;;;3.90;77.10;;;;;;5092922;28;19916;-69
2023/11/12 05:28:28;;;;;;;;;;;3.90;76.50;;;;;;5092798;28;19920;-69
2023/11/12 05:30:58;;;;;;;;;;;3.90;76.90;;;;;;5093638;28;19996;-69
2023/11/12 05:33:23;;;;;;;;;;;3.90;77.00;;;;;;5095704;28;20279;-68
2023/11/12 05:35:49;;;;;;;;;;;3.90;77.00;;;;;;5097080;28;20066;-69
2023/11/12 05:38:15;;;;;;;;;;;3.90;77.00;;;;;;5095474;28;19916;-69
2023/11/12 05:40:41;;;;;;;;;;;3.90;77.00;;;;;;5078092;28;20387;-69
2023/11/12 05:43:07;;;;;;;;;;;3.90;76.40;;;;;;5078705;28;20030;-69
2023/11/12 05:45:33;;;;;;;;;;;3.90;76.80;;;;;;5096767;28;19920;-69
2023/11/12 05:47:59;;;;;;;;;;;3.90;76.80;;;;;;5095547;28;19926;-69
2023/11/12 05:50:25;;;;;;;;;;;3.90;76.80;;;;;;5096240;28;20295;-69
2023/11/12 05:52:51;;;;;;;;;;;3.80;76.60;;;;;;5096549;28;20400;-70
2023/11/12 05:55:18;;;;;;;;;;;3.80;75.90;;;;;;5096456;28;19961;-68
2023/11/12 05:57:44;;;;;;;;;;;3.80;76.70;;;;;;5097113;28;19927;-69
2023/11/12 06:00:11;;;;;;;;;;;3.80;76.20;;;;;;5095820;28;19919;-70
2023/11/12 06:02:38;;;;;;;;;;;3.70;76.40;;;;;;5096860;28;19959;-70
2023/11/12 06:05:05;;;;;;;;;;;3.80;76.40;;;;;;5095163;28;20353;-68
2023/11/12 06:07:32;;;;;;;;;;;3.80;76.20;;;;;;5096943;28;19916;-68
2023/11/12 06:09:59;;;;;;;;;;;3.80;76.20;;;;;;5095049;28;19988;-69
2023/11/12 06:12:25;;;;;;;;;;;3.80;75.70;;;;;;5095952;28;20292;-69
2023/11/12 06:14:51;;;;;;;;;;;3.80;75.60;;;;;;5095202;28;19912;-69
2023/11/12 06:17:17;;;;;;;;;;;3.90;76.20;;;;;;5096491;28;19965;-70
2023/11/12 06:19:43;;;;;;;;;;;3.90;76.20;;;;;;5095021;28;20430;-69
2023/11/12 06:22:09;;;;;;;;;;;3.90;76.00;;;;;;5095427;28;19920;-68
2023/11/12 06:24:35;;;;;;;;;;;3.90;76.40;;;;;;5096027;28;20412;-68
2023/11/12 06:27:01;;;;;;;;;;;4.00;75.30;;;;;;5096201;28;19920;-70
2023/11/12 06:29:26;;;;;;;;;;;4.00;75.90;;;;;;5094846;28;20399;-70
2023/11/12 06:31:52;;;;;;;;;;;4.00;75.80;;;;;;5094204;28;19926;-68
2023/11/12 06:34:18;;;;;;;;;;;4.10;75.80;;;;;;5095940;28;19918;-70
2023/11/12 06:36:44;;;;;;;;;;;4.10;75.70;;;;;;5096137;28;20258;-70
2023/11/12 06:39:13;;;;;;;;;;;4.10;75.10;;;;;;5094524;28;19919;-69
2023/11/12 06:41:40;;;;;;;;;;;4.20;75.70;;;;;;5095223;28;20022;-68
2023/11/12 06:44:06;;;;;;;;;;;4.20;75.30;;;;;;5094398;28;20327;-68
2023/11/12 06:46:32;;;;;;;;;;;4.20;75.20;;;;;;5094295;28;19916;-68
2023/11/12 06:48:58;;;;;;;;;;;4.20;75.30;;;;;;5095680;28;19916;-68
2023/11/12 06:51:25;;;;;;;;;;;4.30;75.40;;;;;;5094984;28;19916;-68
2023/11/12 06:53:51;;;;;;;;;;;4.30;75.30;;;;;;5093994;28;19920;-69
2023/11/12 06:56:18;;;;;;;;;;;4.30;75.00;;;;;;5094288;28;19943;-68
2023/11/12 06:58:43;;;;;;;;;;;4.40;75.00;;;;;;5095343;28;20064;-68
2023/11/12 07:01:09;;;;;;;;;;;4.40;75.00;;;;;;5094999;28;19924;-70
2023/11/12 07:03:35;;;;;;;;;;;4.50;75.10;;;;;;5093939;28;20314;-69
2023/11/12 07:06:01;;;;;;;;;;;4.50;74.70;;;;;;5095309;28;20358;-69
2023/11/12 07:08:30;;;;;;;;;;;4.50;74.90;;;;;;5095186;28;20347;-68
2023/11/12 07:10:58;;;;;;;;;;;4.50;74.40;;;;;;5094604;28;19974;-70
2023/11/12 07:13:24;;;;;;;;;;;4.60;74.30;;;;;;5095107;28;19972;-69
2023/11/12 07:15:50;;;;;;;;;;;4.60;73.50;;;;;;5095161;28;19962;-69
2023/11/12 07:18:16;;;;;;;;;;;4.70;74.20;;;;;;5093754;28;20369;-69
2023/11/12 07:20:42;;;;;;;;;;;4.80;73.90;;;;;;5093292;28;19916;-68
2023/11/12 07:23:08;;;;;;;;;;;4.90;73.90;;;;;;5093903;28;19922;-69
2023/11/12 07:25:33;;;;;;;;;;;5.00;73.70;;;;;;5093556;28;20006;-68
2023/11/12 07:27:59;;;;;;;;;;;5.10;73.70;;;;;;5093479;28;19920;-69
2023/11/12 07:30:25;;;;;;;;;;;5.20;73.60;;;;;;5092870;28;19920;-68
2023/11/12 07:32:51;;;;;;;;;;;5.20;73.70;;;;;;5094597;28;20387;-69
2023/11/12 07:35:18;;;;;;;;;;;5.20;73.50;;;;;;5094445;28;19915;-69
2023/11/12 07:37:44;;;;;;;;;;;5.30;73.60;;;;;;5094977;28;20336;-70
2023/11/12 07:40:15;;;;;;;;;;;5.30;73.10;;;;;;5093896;28;20011;-69
2023/11/12 07:42:42;;;;;;;;;;;5.40;73.00;;;;;;5093590;28;19912;-70
2023/11/12 07:45:09;;;;;;;;;;;5.40;73.10;;;;;;5094503;28;20027;-68
2023/11/12 07:47:35;;;;;;;;;;;5.50;73.10;;;;;;5093472;28;20430;-68
2023/11/12 07:50:02;;;;;;;;;;;5.60;73.00;;;;;;5076147;28;19920;-69
2023/11/12 07:52:28;;;;;;;;;;;5.70;72.80;;;;;;5092239;28;19916;-68
2023/11/12 07:54:54;;;;;;;;;;;5.80;72.90;;;;;;5093259;28;19981;-70
2023/11/12 07:57:20;;;;;;;;;;;5.90;73.00;;;;;;5093129;28;19970;-69
2023/11/12 07:59:47;;;;;;;;;;;5.90;73.00;;;;;;5094146;28;20361;-68
2023/11/12 08:02:12;;;;;;;;;;;6.10;72.90;;;;;;5093879;28;19930;-68
2023/11/12 08:04:38;;;;;;;;;;;6.10;72.60;;;;;;5093998;28;19912;-70
2023/11/12 08:07:04;;;;;;;;;;;6.20;72.50;;;;;;5092870;28;19958;-70
2023/11/12 08:09:30;;;;;;;;;;;6.30;72.50;;;;;;5092648;28;20002;-70
2023/11/12 08:11:56;;;;;;;;;;;6.20;71.90;;;;;;5093563;28;19926;-68
2023/11/12 08:14:24;;;;;;;;;;;6.30;72.10;;;;;;5075894;28;20367;-69
2023/11/12 08:16:50;;;;;;;;;;;6.40;71.00;;;;;;5092796;28;19966;-69
2023/11/12 08:19:16;;;;;;;;;;;6.40;71.30;;;;;;5094028;28;19919;-69
2023/11/12 08:21:42;;;;;;;;;;;6.50;72.00;;;;;;5091995;28;19923;-69
2023/11/12 08:24:08;;;;;;;;;;;6.50;71.50;;;;;;5094008;28;19999;-69
2023/11/12 08:26:38;;;;;;;;;;;6.60;71.70;;;;;;5093767;28;20002;-70
2023/11/12 08:31:51;;;;;;;;;;;6.50;71.30;;;;;;5093150;28;20368;-69
2023/11/12 08:34:21;;;;;;;;;;;6.60;71.50;;;;;;5094014;28;20010;-70
2023/11/12 08:36:48;;;;;;;;;;;6.70;71.60;;;;;;5093859;28;19927;-68
2023/11/12 08:39:16;;;;;;;;;;;6.70;71.60;;;;;;5092245;28;19999;-70
2023/11/12 08:42:19;;;;;;;;;;;6.70;71.70;;;;;;5091879;28;19927;-69
2023/11/12 08:44:45;;;;;;;;;;;6.90;71.20;;;;;;5093483;28;19918;-69
2023/11/12 08:47:11;;;;;;;;;;;7.00;70.70;;;;;;5092099;28;20006;-69
2023/11/12 08:49:37;;;;;;;;;;;6.90;70.60;;;;;;5092190;28;19912;-68
2023/11/12 08:52:03;;;;;;;;;;;6.80;70.70;;;;;;5091496;28;19994;-68
2023/11/12 08:54:29;;;;;;;;;;;6.90;70.50;;;;;;5091721;28;19916;-68
2023/11/12 08:56:55;;;;;;;;;;;7.00;71.10;;;;;;5091975;28;20341;-69
2023/11/12 08:59:22;;;;;;;;;;;7.20;70.80;;;;;;5092141;28;19912;-68
2023/11/12 09:01:48;;;;;;;;;;;7.40;70.50;;;;;;5091636;28;20366;-69
2023/11/12 09:04:14;;;;;;;;;;;7.40;70.10;;;;;;5092315;28;19920;-70
2023/11/12 09:06:40;;;;;;;;;;;7.50;70.20;;;;;;5092956;28;19919;-68
2023/11/12 09:09:08;;;;;;;;;;;7.50;70.30;;;;;;5075066;28;20288;-68
2023/11/12 09:11:34;;;;;;;;;;;7.60;70.00;;;;;;5091180;28;19931;-69
2023/11/12 09:14:03;;;;;;;;;;;7.70;70.10;;;;;;5092954;28;19912;-68
2023/11/12 09:16:30;;;;;;;;;;;7.70;70.00;;;;;;5091792;28;19920;-69
2023/11/12 09:18:56;;;;;;;;;;;7.80;69.20;;;;;;5091942;28;20365;-68
2023/11/12 09:21:23;;;;;;;;;;;7.70;69.00;;;;;;5092251;28;19928;-69
2023/11/12 09:23:50;;;;;;;;;;;7.70;69.50;;;;;;5093098;28;20343;-68
2023/11/12 09:26:35;;;;;;;;;;;7.80;69.50;;;;;;5091561;28;20369;-70
2023/11/12 09:29:01;;;;;;;;;;;7.90;69.60;;;;;;5091725;28;19916;-68
2023/11/12 09:31:27;;;;;;;;;;;7.90;69.80;;;;;;5092412;28;20020;-69
2023/11/12 09:33:53;;;;;;;;;;;7.80;69.90;;;;;;5091631;28;19973;-68
2023/11/12 09:36:19;;;;;;;;;;;7.70;70.40;;;;;;5091598;28;19919;-68
2023/11/12 09:38:46;;;;;;;;;;;7.80;70.50;;;;;;5091477;28;20278;-69
2023/11/12 09:41:14;;;;;;;;;;;7.90;70.00;;;;;;5074146;28;19916;-70
2023/11/12 09:43:40;;;;;;;;;;;7.90;69.90;;;;;;5091716;28;19923;-69
2023/11/12 09:48:52;;;;;;;;;;;8.10;69.00;;;;;;5091622;28;19961;-70
2023/11/12 09:51:18;;;;;;;;;;;8.10;69.50;;;;;;5090706;28;19933;-68
2023/11/12 09:53:47;;;;;;;;;;;8.20;68.40;;;;;;5074485;28;19926;-68
2023/11/12 09:56:13;;;;;;;;;;;8.20;69.10;;;;;;5091364;28;19931;-68
2023/11/12 09:58:41;;;;;;;;;;;8.20;69.10;;;;;;5074574;28;20365;-69
2023/11/12 10:01:26;;;;;;;;;;;8.10;69.20;;;;;;5090762;28;20380;-70
2023/11/12 10:03:52;;;;;;;;;;;8.10;69.80;;;;;;5092629;28;20300;-68
2023/11/12 10:06:22;;;;;;;;;;;8.20;69.80;;;;;;5091125;28;19919;-68
2023/11/12 10:08:49;;;;;;;;;;;8.20;69.70;;;;;;5091424;28;19965;-69
2023/11/12 10:11:33;;;;;;;;;;;8.40;69.50;;;;;;5090802;28;20328;-70
2023/11/12 10:13:59;;;;;;;;;;;8.50;69.50;;;;;;5092397;28;19912;-70
2023/11/12 10:16:29;;;;;;;;;;;8.70;69.40;;;;;;5092832;28;19920;-70
2023/11/12 10:19:13;;;;;;;;;;;8.90;69.00;;;;;;5095105;28;20356;-69
2023/11/12 10:21:59;;;;;;;;;;;9.10;68.80;;;;;;5094403;28;20273;-68
2023/11/12 10:24:30;;;;;;;;;;;9.10;68.50;;;;;;5094906;28;19954;-69
2023/11/12 10:27:15;;;;;;;;;;;9.10;68.60;;;;;;5078246;28;19920;-69
2023/11/12 10:29:43;;;;;;;;;;;9.10;68.80;;;;;;5094850;28;20426;-68
2023/11/12 10:32:23;;;;;;;;;;;9.10;68.70;;;;;;5095602;28;19920;-70
2023/11/12 10:34:49;;;;;;;;;;;9.20;68.70;;;;;;5078008;28;19943;-68
2023/11/12 10:37:16;;;;;;;;;;;9.20;68.80;;;;;;5096233;28;19970;-70
2023/11/12 10:39:44;;;;;;;;;;;9.30;68.90;;;;;;5094511;28;19916;-70
2023/11/12 10:42:29;;;;;;;;;;;9.40;68.20;;;;;;5095637;28;20028;-69
2023/11/12 10:44:56;;;;;;;;;;;9.50;68.00;;;;;;5077741;28;19920;-70
2023/11/12 10:47:24;;;;;;;;;;;9.50;68.00;;;;;;5094292;28;19923;-70
2023/11/12 10:49:50;;;;;;;;;;;9.60;67.90;;;;;;5077519;28;19916;-69
2023/11/12 10:52:17;;;;;;;;;;;9.60;67.80;;;;;;5076840;28;19958;-68
2023/11/12 10:54:45;;;;;;;;;;;9.80;67.70;;;;;;5094516;28;19977;-70
2023/11/12 10:57:30;;;;;;;;;;;9.90;67.50;;;;;;5095629;28;19930;-68
2023/11/12 10:59:56;;;;;;;;;;;9.90;67.40;;;;;;5094200;28;19912;-69
2023/11/12 11:02:28;;;;;;;;;;;9.90;67.60;;;;;;5093490;28;19973;-69
2023/11/12 11:04:55;;;;;;;;;;;10.00;67.30;;;;;;5094350;28;20342;-69
2023/11/12 11:07:23;;;;;;;;;;;10.00;67.20;;;;;;5094001;28;19924;-70
2023/11/12 11:09:48;;;;;;;;;;;10.10;67.30;;;;;;5077408;28;19912;-70
2023/11/12 11:12:15;;;;;;;;;;;10.10;66.50;;;;;;5093478;28;20428;-70
2023/11/12 11:14:41;;;;;;;;;;;10.30;66.80;;;;;;5094021;28;20335;-69
2023/11/12 11:17:08;;;;;;;;;;;10.70;66.10;;;;;;5093881;28;19920;-68
2023/11/12 11:19:53;;;;;;;;;;;11.00;65.00;;;;;;5077350;28;20368;-69
2023/11/12 11:22:37;;;;;;;;;;;11.00;64.40;;;;;;5094766;28;19919;-69
2023/11/12 11:25:24;;;;;;;;;;;11.20;64.20;;;;;;5094999;28;19916;-68
2023/11/12 11:28:34;;;;;;;;;;;11.30;64.20;;;;;;5092734;28;19924;-69
2023/11/12 11:31:19;;;;;;;;;;;11.50;63.70;;;;;;5093182;28;20266;-68
2023/11/12 11:33:58;;;;;;;;;;;11.40;62.60;;;;;;5093522;28;19920;-68
2023/11/12 11:39:17;;;;;;;;;;;10.80;64.40;;;;;;5094766;28;20012;-68
2023/11/12 11:41:45;;;;;;;;;;;10.60;64.90;;;;;;5094272;28;20110;-70
2023/11/12 11:44:42;;;;;;;;;;;10.50;64.90;;;;;;5094797;28;19985;-70
2023/11/12 11:47:14;;;;;;;;;;;10.40;65.00;;;;;;5093351;28;19920;-70
2023/11/12 11:49:46;;;;;;;;;;;10.30;65.30;;;;;;5093327;28;19959;-70
2023/11/12 11:52:27;;;;;;;;;;;10.10;65.40;;;;;;5094110;28;19920;-68
2023/11/12 11:55:05;;;;;;;;;;;10.10;65.40;;;;;;5093137;28;19935;-70
2023/11/12 11:57:31;;;;;;;;;;;10.00;65.60;;;;;;5094752;28;20022;-70
2023/11/12 11:59:58;;;;;;;;;;;9.90;65.90;;;;;;5094389;28;19918;-69
2023/11/12 12:02:24;;;;;;;;;;;9.80;65.80;;;;;;5092553;28;20350;-69
2023/11/12 12:04:52;;;;;;;;;;;9.70;65.70;;;;;;5092972;28;19912;-68
2023/11/12 12:07:38;;;;;;;;;;;9.60;65.90;;;;;;5094349;28;19927;-70
2023/11/12 12:10:04;;;;;;;;;;;9.50;66.40;;;;;;5093448;28;19949;-68
2023/11/12 12:12:30;;;;;;;;;;;9.40;66.10;;;;;;5092954;28;19954;-69
2023/11/12 12:14:56;;;;;;;;;;;9.40;66.90;;;;;;5092842;28;20003;-68
2023/11/12 12:17:22;;;;;;;;;;;9.30;67.10;;;;;;5092698;28;19920;-68
2023/11/12 12:20:08;;;;;;;;;;;9.40;66.40;;;;;;5075814;28;19912;-69
2023/11/12 12:22:34;;;;;;;;;;;9.40;67.10;;;;;;5092274;28;20462;-70
2023/11/12 12:24:59;;;;;;;;;;;9.40;67.20;;;;;;5092831;28;19916;-68
2023/11/12 12:27:26;;;;;;;;;;;9.40;67.20;;;;;;5094026;28;20416;-69
2023/11/12 12:29:52;;;;;;;;;;;9.40;67.20;;;;;;5093734;28;19994;-68
2023/11/12 12:32:20;;;;;;;;;;;9.50;67.30;;;;;;5093446;28;20368;-68
2023/11/12 12:34:56;;;;;;;;;;;9.50;67.10;;;;;;5092547;28;19920;-68
2023/11/12 12:37:28;;;;;;;;;;;9.50;67.10;;;;;;5093799;28;20045;-70
2023/11/12 12:40:10;;;;;;;;;;;9.50;67.10;;;;;;5093249;28;19916;-70
2023/11/12 12:42:36;;;;;;;;;;;9.50;67.20;;;;;;5092100;28;19977;-69
2023/11/12 12:45:04;;;;;;;;;;;9.50;67.10;;;;;;5075374;28;19926;-68
2023/11/12 12:47:48;;;;;;;;;;;9.50;67.30;;;;;;5092168;28;19916;-70
2023/11/12 12:50:33;;;;;;;;;;;9.50;67.20;;;;;;5092704;28;19923;-68
2023/11/12 12:53:15;;;;;;;;;;;9.50;67.30;;;;;;5093075;28;19920;-69
2023/11/12 12:55:43;;;;;;;;;;;9.50;67.30;;;;;;5093418;28;19947;-69
2023/11/12 12:58:10;;;;;;;;;;;9.50;67.30;;;;;;5092133;28;19955;-69
2023/11/12 13:00:38;;;;;;;;;;;9.50;66.60;;;;;;5091379;28;19924;-70
2023/11/12 13:03:13;;;;;;;;;;;9.60;67.10;;;;;;5091925;28;19924;-69
2023/11/12 13:05:39;;;;;;;;;;;9.70;67.30;;;;;;5091631;28;20403;-68
2023/11/12 13:08:07;;;;;;;;;;;9.70;68.10;;;;;;5092889;28;19963;-70
2023/11/12 13:10:34;;;;;;;;;;;9.70;67.30;;;;;;5091277;28;20368;-68
2023/11/12 13:12:59;;;;;;;;;;;9.70;67.30;;;;;;5092105;28;19923;-69
2023/11/12 13:15:25;;;;;;;;;;;9.70;67.40;;;;;;5092836;28;20006;-68
2023/11/12 13:17:52;;;;;;;;;;;9.80;67.30;;;;;;5091915;28;20002;-68
2023/11/12 13:20:21;;;;;;;;;;;9.90;67.30;;;;;;5092505;28;20320;-69
2023/11/12 13:22:48;;;;;;;;;;;9.90;67.00;;;;;;5092019;28;20360;-68
2023/11/12 13:25:15;;;;;;;;;;;9.90;67.00;;;;;;5091529;28;19927;-70
2023/11/12 13:30:27;;;;;;;;;;;9.90;66.70;;;;;;5091590;28;19927;-70
2023/11/12 13:32:53;;;;;;;;;;;9.90;66.70;;;;;;5092889;28;19920;-68
2023/11/12 13:35:20;;;;;;;;;;;9.90;66.90;;;;;;5074725;28;20368;-69
2023/11/12 13:37:46;;;;;;;;;;;9.90;66.30;;;;;;5075019;28;19916;-69
2023/11/12 13:42:56;;;;;;;;;;;9.80;66.80;;;;;;5091934;28;20364;-68
2023/11/12 13:45:22;;;;;;;;;;;9.70;66.70;;;;;;5074469;28;19989;-69
2023/11/12 13:47:48;;;;;;;;;;;9.70;66.70;;;;;;5093210;28;19916;-70
2023/11/12 13:50:16;;;;;;;;;;;9.70;66.20;;;;;;5090857;28;19916;-69
2023/11/12 13:55:30;;;;;;;;;;;9.60;66.80;;;;;;5096608;28;19993;-70
2023/11/12 13:57:56;;;;;;;;;;;9.60;66.20;;;;;;5095282;28;19924;-70
2023/11/12 14:00:27;;;;;;;;;;;9.60;67.00;;;;;;5096023;28;19916;-70
2023/11/12 14:02:54;;;;;;;;;;;9.60;66.70;;;;;;5095171;28;20010;-68
2023/11/12 14:05:26;;;;;;;;;;;9.60;66.70;;;;;;5077952;28;19923;-70
2023/11/12 14:07:52;;;;;;;;;;;9.60;67.60;;;;;;5095439;28;20277;-70
2023/11/12 14:10:18;;;;;;;;;;;9.60;66.90;;;;;;5094502;28;19915;-70
2023/11/12 14:12:44;;;;;;;;;;;9.70;67.00;;;;;;5095463;28;20292;-70
2023/11/12 14:15:15;;;;;;;;;;;9.60;67.10;;;;;;5095064;28;20006;-69
2023/11/12 14:17:41;;;;;;;;;;;9.60;67.30;;;;;;5096961;28;19951;-69
2023/11/12 14:20:09;;;;;;;;;;;9.60;67.30;;;;;;5094344;28;19947;-68
2023/11/12 14:22:55;;;;;;;;;;;9.60;67.20;;;;;;5078402;28;20417;-69
2023/11/12 14:25:21;;;;;;;;;;;9.50;67.40;;;;;;5096053;28;19920;-69
2023/11/12 14:27:48;;;;;;;;;;;9.50;67.80;;;;;;5094943;28;19912;-70
2023/11/12 14:30:17;;;;;;;;;;;9.40;67.20;;;;;;5094116;28;19931;-68
2023/11/12 14:32:43;;;;;;;;;;;9.50;67.80;;;;;;5078309;28;19959;-70
2023/11/12 14:35:08;;;;;;;;;;;9.50;68.00;;;;;;5094649;28;20430;-68
2023/11/12 14:37:34;;;;;;;;;;;9.50;67.90;;;;;;5077817;28;20327;-70
2023/11/12 14:40:09;;;;;;;;;;;9.50;67.90;;;;;;5095810;28;19924;-69
2023/11/12 14:42:54;;;;;;;;;;;9.50;68.10;;;;;;5078767;28;20357;-69
2023/11/12 14:45:21;;;;;;;;;;;9.50;68.00;;;;;;5094374;28;19956;-70
2023/11/12 14:47:47;;;;;;;;;;;9.50;68.10;;;;;;5094737;28;19923;-69
2023/11/12 14:50:16;;;;;;;;;;;9.40;68.10;;;;;;5076967;28;19916;-70
2023/11/12 14:52:41;;;;;;;;;;;9.40;68.30;;;;;;5094522;28;20277;-70